Terminal Aerodrome Forecast
Issued by NWS

Home | Current Version | Previous Version | Text Only | Print | Product List | Glossary On
Versions: 1 2 3 4 5 6 7 8 9 10 11 12 13 14 15 16 17 18 19 20 21 22 23 24 25 26 27 28 29
976
FTUS42 KFFC 221505 AAB
TAFFTY
TAF AMD
KFTY 221505Z 2215/2312 10004KT P6SM OVC007
     FM221700 16007KT 6SM BR VCSH BKN009 OVC020
      TEMPO 2218/2221 VRB15G25KT 3SM TSRA OVC012CB
     FM222100 22014KT 4SM TSRA OVC015CB
     FM230000 25014KT P6SM VCSH BKN030 BKN150
     FM230300 26012KT 5SM -RA BR BKN012=

USA.gov is the U.S. government's official web portal to all federal, state and local government web resources and services.